Time;durP1;ratioP1;P1;durP2;ratioP2;P2;SDS_P1;SDS_P2;PMS_P1;PMS_P2;Temp;Humidity;BMP_temperature;BMP_pressure;BME280_temperature;BME280_humidity;BME280_pressure;Samples;Min_cycle;Max_cycle;Signal;HPM_P1;HPM_P2
2022/06/23 00:00:45;;;;;;;;;;;14.10;1.00;;;;;;5073175;28;19920;-89
2022/06/23 00:03:17;;;;;;;;;;;14.10;1.00;;;;;;5071562;28;19921;-89
2022/06/23 00:05:47;;;;;;;;;;;14.10;1.00;;;;;;5072959;28;19927;-88
2022/06/23 00:08:16;;;;;;;;;;;14.00;1.00;;;;;;5072799;28;19920;-88
2022/06/23 00:10:45;;;;;;;;;;;14.00;1.00;;;;;;5072885;28;19931;-88
2022/06/23 00:13:15;;;;;;;;;;;14.00;1.00;;;;;;5073812;28;19978;-89
2022/06/23 00:15:43;;;;;;;;;;;14.00;1.00;;;;;;5073465;28;19921;-89
2022/06/23 00:18:16;;;;;;;;;;;14.00;56.40;;;;;;5067895;28;19921;-89
2022/06/23 00:20:46;;;;;;;;;;;14.00;99.90;;;;;;5074539;28;20023;-89
2022/06/23 00:23:15;;;;;;;;;;;14.10;30.90;;;;;;5075510;28;19924;-88
2022/06/23 00:25:44;;;;;;;;;;;14.00;1.00;;;;;;5061253;28;19920;-89
2022/06/23 00:28:18;;;;;;;;;;;14.00;1.00;;;;;;5065328;28;20297;-89
2022/06/23 00:30:45;;;;;;;;;;;14.00;1.00;;;;;;5074275;28;20281;-88
2022/06/23 00:33:17;;;;;;;;;;;14.00;1.00;;;;;;5075121;28;20049;-88
2022/06/23 00:35:45;;;;;;;;;;;14.00;1.00;;;;;;5075368;28;19928;-89
2022/06/23 00:38:24;;;;;;;;;;;13.90;1.00;;;;;;5068591;28;19920;-89
2022/06/23 00:40:51;;;;;;;;;;;13.90;1.00;;;;;;5057449;28;20361;-89
2022/06/23 00:43:21;;;;;;;;;;;13.80;1.00;;;;;;5073896;28;19932;-89
2022/06/23 00:45:50;;;;;;;;;;;13.70;1.00;;;;;;5077407;28;19920;-90
2022/06/23 00:48:19;;;;;;;;;;;13.70;1.00;;;;;;5065404;28;19943;-90
2022/06/23 00:50:48;;;;;;;;;;;13.70;1.00;;;;;;5079100;28;19927;-90
2022/06/23 00:53:19;;;;;;;;;;;13.60;1.00;;;;;;5057689;28;19928;-89
2022/06/23 00:55:49;;;;;;;;;;;13.50;1.00;;;;;;5071664;28;19921;-89
2022/06/23 00:58:19;;;;;;;;;;;13.50;1.00;;;;;;5080970;28;19920;-90
2022/06/23 01:00:50;;;;;;;;;;;13.50;1.00;;;;;;5073207;28;19970;-90
2022/06/23 01:03:19;;;;;;;;;;;13.50;57.20;;;;;;5078808;28;19932;-90
2022/06/23 01:05:49;;;;;;;;;;;13.40;99.90;;;;;;5077123;28;19927;-90
2022/06/23 01:08:21;;;;;;;;;;;13.40;99.90;;;;;;5075418;28;19943;-90
2022/06/23 01:10:53;;;;;;;;;;;13.40;99.90;;;;;;5075469;28;19920;-89
2022/06/23 01:13:25;;;;;;;;;;;13.40;99.90;;;;;;5075830;28;19921;-89
2022/06/23 01:15:55;;;;;;;;;;;13.40;99.90;;;;;;5075309;28;20015;-89
2022/06/23 01:18:25;;;;;;;;;;;13.40;99.90;;;;;;5075473;28;19920;-89
2022/06/23 01:20:53;;;;;;;;;;;13.40;99.90;;;;;;5075186;28;19921;-89
2022/06/23 01:23:47;;;;;;;;;;;13.40;1.00;;;;;;5075041;28;19920;-90
2022/06/23 01:26:26;;;;;;;;;;;13.40;1.00;;;;;;5075381;28;19920;-89
2022/06/23 01:28:59;;;;;;;;;;;13.40;99.90;;;;;;5075873;28;19946;-90
2022/06/23 01:31:27;;;;;;;;;;;13.40;1.00;;;;;;5055348;28;19921;-90
2022/06/23 01:33:56;;;;;;;;;;;13.30;99.90;;;;;;5063175;28;19920;-89
2022/06/23 01:36:26;;;;;;;;;;;13.30;1.00;;;;;;5075310;28;19924;-89
2022/06/23 01:38:56;;;;;;;;;;;13.40;1.00;;;;;;5075384;28;20497;-89
2022/06/23 01:41:26;;;;;;;;;;;13.40;1.00;;;;;;5061055;28;19925;-89
2022/06/23 01:43:59;;;;;;;;;;;13.40;1.00;;;;;;5075131;28;19924;-89
2022/06/23 01:46:32;;;;;;;;;;;13.40;99.90;;;;;;5075001;28;19920;-89
2022/06/23 01:49:02;;;;;;;;;;;13.30;99.90;;;;;;5074706;28;19999;-88
2022/06/23 01:51:31;;;;;;;;;;;13.30;99.90;;;;;;5075597;28;19928;-89
2022/06/23 01:54:08;;;;;;;;;;;13.20;99.90;;;;;;5074395;28;19920;-89
2022/06/23 01:56:40;;;;;;;;;;;13.10;98.60;;;;;;5070820;28;19920;-89
2022/06/23 01:59:13;;;;;;;;;;;13.00;99.90;;;;;;5060928;28;19924;-90
2022/06/23 02:01:47;;;;;;;;;;;13.00;99.90;;;;;;5074471;28;19964;-89
2022/06/23 02:04:15;;;;;;;;;;;12.90;99.90;;;;;;5074809;28;19921;-89
2022/06/23 02:06:47;;;;;;;;;;;12.90;99.90;;;;;;5074992;28;20053;-89
2022/06/23 02:09:16;;;;;;;;;;;12.80;99.90;;;;;;5075448;28;19944;-89
2022/06/23 02:11:47;;;;;;;10.13;6.00;;;12.80;99.90;;;;;;5070435;28;20397;-89
2022/06/23 02:14:24;;;;;;;14.47;6.13;;;12.70;99.90;;;;;;5074955;28;20202;-89
2022/06/23 02:16:58;;;;;;;8.17;5.87;;;12.70;99.90;;;;;;5063340;28;20229;-89
2022/06/23 02:19:35;;;;;;;9.83;5.90;;;12.60;99.90;;;;;;5074833;28;20206;-88
2022/06/23 02:22:10;;;;;;;10.20;5.77;;;12.60;1.00;;;;;;5076630;28;20681;-89
2022/06/23 02:24:47;;;;;;;8.77;6.10;;;12.50;1.00;;;;;;5076218;28;20220;-90
2022/06/23 02:27:19;;;;;;;14.37;5.90;;;12.50;1.00;;;;;;5074230;28;20671;-88
2022/06/23 02:29:53;;;;;;;10.63;5.43;;;12.50;1.00;;;;;;5072902;28;20194;-89
2022/06/23 02:32:30;;;;;;;8.07;5.57;;;12.50;1.00;;;;;;5073803;28;20227;-89
2022/06/23 02:35:03;;;;;;;12.80;6.47;;;12.50;1.00;;;;;;5055908;28;20956;-89
2022/06/23 02:37:57;;;;;;;9.47;5.60;;;12.50;1.00;;;;;;5068946;28;20242;-89
2022/06/23 02:40:30;;;;;;;13.53;6.37;;;12.40;99.90;;;;;;5057570;28;20205;-89
2022/06/23 02:43:02;;;;;;;10.00;6.20;;;12.40;99.90;;;;;;5061760;28;20289;-88
2022/06/23 02:46:02;;;;;;;12.70;6.70;;;12.40;99.90;;;;;;5070093;28;20218;-89
2022/06/23 02:48:58;;;;;;;10.43;6.20;;;12.40;99.90;;;;;;5055247;28;20280;-89
2022/06/23 02:51:41;;;;;;;11.60;6.07;;;12.40;99.90;;;;;;5075902;28;20283;-89
2022/06/23 02:54:31;;;;;;;13.53;6.87;;;12.40;99.90;;;;;;5075861;28;20197;-89
2022/06/23 02:57:21;;;;;;;11.87;6.30;;;12.40;99.90;;;;;;5048388;28;20207;-89
2022/06/23 02:59:52;;;;;;;14.50;5.87;;;12.40;99.90;;;;;;5074413;28;20654;-90
2022/06/23 03:02:26;;;;;;;11.80;5.80;;;12.50;99.90;;;;;;5075971;28;20216;-90
2022/06/23 03:04:58;;;;;;;15.97;6.47;;;12.40;99.90;;;;;;5064036;28;20221;-90
2022/06/23 03:07:31;;;;;;;18.67;6.47;;;12.50;99.90;;;;;;5069526;28;20200;-89
2022/06/23 03:10:06;;;;;;;11.90;5.90;;;12.50;99.90;;;;;;5068698;28;20201;-90
2022/06/23 03:12:40;;;;;;;12.17;6.40;;;12.50;1.00;;;;;;5065905;28;20582;-90
2022/06/23 03:15:13;;;;;;;12.17;6.10;;;12.50;1.00;;;;;;5067231;28;20215;-90
2022/06/23 03:17:47;;;;;;;13.70;6.07;;;12.50;1.00;;;;;;5070207;28;20309;-89
2022/06/23 03:20:25;;;;;;;14.10;6.90;;;12.60;1.00;;;;;;5068584;28;20197;-89
2022/06/23 03:22:59;;;;;;;14.60;6.43;;;12.60;1.00;;;;;;5047964;28;20222;-88
2022/06/23 03:25:31;;;;;;;12.93;6.00;;;12.60;1.00;;;;;;5060219;28;20217;-89
2022/06/23 03:28:02;;;;;;;10.23;5.97;;;12.70;1.00;;;;;;5053750;28;20632;-89
2022/06/23 03:30:36;;;;;;;12.13;6.43;;;12.70;1.00;;;;;;5064345;28;20196;-89
2022/06/23 03:33:15;;;;;;;12.17;6.07;;;12.80;1.00;;;;;;5066853;28;20254;-89
2022/06/23 03:35:49;;;;;;;8.67;6.13;;;12.80;1.00;;;;;;5074367;28;20564;-89
2022/06/23 03:41:36;;;;;;;12.40;5.90;;;12.90;1.00;;;;;;5070033;28;20276;-89
2022/06/23 03:44:21;;;;;;;15.83;6.00;;;13.10;99.90;;;;;;4992518;28;20330;-89
2022/06/23 03:46:55;;;;;;;6.27;5.10;;;13.60;1.00;;;;;;4991154;28;20211;-90
2022/06/23 03:49:29;;;;;;;;;;;14.50;1.00;;;;;;5036191;28;20059;-90
2022/06/23 03:52:03;;;;;;;8.27;3.73;;;15.60;99.90;;;;;;5057427;28;20346;-91
2022/06/23 03:54:37;;;;;;;7.40;4.20;;;16.70;99.90;;;;;;5071326;28;20052;-91
2022/06/23 03:57:08;;;;;;;7.78;3.65;;;17.60;1.00;;;;;;5071063;28;20201;-92
2022/06/23 03:59:43;;;;;;;9.90;3.53;;;18.50;1.00;;;;;;5071749;28;20203;-90
2022/06/23 04:02:14;;;;;;;;;;;19.40;99.90;;;;;;5064436;28;20849;-91
2022/06/23 04:04:45;;;;;;;;;;;20.20;1.00;;;;;;5063337;28;19924;-91
2022/06/23 04:07:30;;;;;;;;;;;21.00;1.00;;;;;;5073057;28;20686;-91
2022/06/23 04:10:02;;;;;;;6.82;3.10;;;21.70;1.00;;;;;;5073086;28;20883;-91
2022/06/23 04:12:30;;;;;;;5.65;2.85;;;22.40;99.90;;;;;;5069668;28;20221;-92
2022/06/23 04:15:05;;;;;;;7.68;3.22;;;22.90;1.00;;;;;;5070107;28;20589;-91
2022/06/23 04:17:41;;;;;;;4.85;3.08;;;23.40;1.00;;;;;;5068571;28;20253;-91
2022/06/23 04:20:14;;;;;;;8.98;3.03;;;23.80;1.00;;;;;;5075199;28;20269;-90
2022/06/23 04:22:45;;;;;;;6.65;3.00;;;24.30;99.90;;;;;;5076676;28;20187;-90
2022/06/23 04:25:19;;;;;;;5.20;3.30;;;24.70;99.90;;;;;;5076530;28;20727;-90
2022/06/23 04:27:48;;;;;;;;;;;25.20;99.90;;;;;;5063649;28;20552;-91
2022/06/23 04:30:30;;;;;;;4.55;2.65;;;25.60;99.90;;;;;;5077504;28;20250;-91
2022/06/23 04:33:00;;;;;;;6.82;2.83;;;26.00;99.90;;;;;;5072839;28;20169;-91
2022/06/23 04:35:32;;;;;;;3.25;2.88;;;26.40;99.90;;;;;;5065721;28;20558;-91
2022/06/23 04:38:06;;;;;;;3.60;2.55;;;26.80;99.90;;;;;;5069085;28;20567;-90
2022/06/23 04:40:46;;;;;;;5.45;2.58;;;27.20;99.90;;;;;;5071071;28;20629;-90
2022/06/23 04:43:16;;;;;;;7.70;2.40;;;27.50;99.90;;;;;;5064169;28;20283;-90
2022/06/23 04:45:53;;;;;;;5.38;2.63;;;27.80;99.90;;;;;;5061407;28;20231;-91
2022/06/23 04:48:27;;;;;;;5.68;2.40;;;28.10;99.90;;;;;;5060554;28;20665;-91
2022/06/23 04:51:00;;;;;;;3.72;2.53;;;28.30;99.90;;;;;;5080450;28;20204;-91
2022/06/23 04:53:34;;;;;;;;;;;28.50;97.30;;;;;;5079393;28;20740;-91
2022/06/23 04:56:13;;;;;;;4.25;2.60;;;28.80;94.20;;;;;;5078251;28;20906;-91
2022/06/23 04:58:48;;;;;;;4.10;2.47;;;29.00;87.00;;;;;;5074601;28;20215;-90
2022/06/23 05:01:19;;;;;;;7.32;2.17;;;29.30;80.20;;;;;;5077432;28;20659;-90
2022/06/23 05:03:50;;;;;;;3.75;2.20;;;29.60;76.00;;;;;;5075104;28;20296;-90
2022/06/23 05:06:33;;;;;;;4.22;2.40;;;29.90;70.80;;;;;;5064619;28;20204;-90
2022/06/23 05:09:03;;;;;;;;;;;30.20;64.60;;;;;;5063999;28;20204;-90
2022/06/23 05:11:39;;;;;;;3.30;2.13;;;30.30;62.60;;;;;;5068414;28;20449;-90
2022/06/23 05:14:16;;;;;;;4.25;2.25;;;30.40;58.80;;;;;;5068406;28;20192;-91
2022/06/23 05:16:46;;;;;;;3.78;2.58;;;30.60;51.10;;;;;;5067607;28;20227;-90
2022/06/23 05:19:21;;;;;;;3.30;2.20;;;30.70;46.70;;;;;;5065886;28;20260;-91
2022/06/23 05:21:53;;;;;;;3.88;2.10;;;30.90;43.30;;;;;;5070083;28;20204;-92
2022/06/23 05:24:23;;;;;;;4.00;2.20;;;31.10;41.70;;;;;;5061727;28;20204;-91
2022/06/23 05:26:57;;;;;;;5.05;2.10;;;31.20;38.70;;;;;;5060185;28;20550;-92
2022/06/23 05:29:29;;;;;;;6.18;2.58;;;31.30;35.30;;;;;;5070385;28;20225;-92
2022/06/23 05:31:59;;;;;;;3.88;2.33;;;31.50;55.00;;;;;;5074604;28;20228;-91
2022/06/23 05:34:28;;;;;;;3.03;2.03;;;31.70;29.90;;;;;;5062757;28;20191;-89
2022/06/23 05:37:06;;;;;;;5.28;2.33;;;32.00;28.80;;;;;;5068094;28;20197;-91
2022/06/23 05:39:41;;;;;;;3.83;2.63;;;32.40;28.30;;;;;;5062112;28;20652;-90
2022/06/23 05:42:16;;;;;;;5.03;2.53;;;32.60;26.20;;;;;;5064671;28;20261;-91
2022/06/23 05:44:49;;;;;;;4.43;2.42;;;32.80;23.50;;;;;;5067046;28;20227;-91
2022/06/23 05:47:19;;;;;;;4.65;2.60;;;33.00;21.20;;;;;;5062679;28;20287;-90
2022/06/23 05:49:53;;;;;;;3.30;2.40;;;33.10;19.60;;;;;;5059024;28;20216;-91
2022/06/23 05:52:22;;;;;;;;;;;33.20;18.10;;;;;;5062480;28;20219;-92
2022/06/23 05:54:55;;;;;;;3.60;2.28;;;33.40;18.40;;;;;;5068870;28;20387;-92
2022/06/23 05:57:31;;;;;;;4.07;2.20;;;33.80;15.30;;;;;;5075297;28;20191;-92
2022/06/23 06:00:04;;;;;;;6.07;2.70;;;34.10;13.00;;;;;;5070441;28;20267;-91
2022/06/23 06:02:38;;;;;;;5.13;2.38;;;34.40;11.00;;;;;;5063640;28;20247;-92
2022/06/23 06:05:24;;;;;;;3.92;2.30;;;34.90;10.60;;;;;;5069614;28;20184;-93
2022/06/23 06:07:52;;;;;;;2.95;2.35;;;35.50;6.80;;;;;;5063581;28;20195;-92
2022/06/23 06:10:20;;;;;;;;;;;35.80;6.60;;;;;;5075389;28;20107;-91
2022/06/23 06:12:51;;;;;;;7.45;2.90;;;36.30;4.20;;;;;;5074289;28;20209;-91
2022/06/23 06:15:21;;;;;;;4.10;2.60;;;36.90;2.90;;;;;;5073501;28;20597;-91
2022/06/23 06:17:50;;;;;;;3.65;2.47;;;37.20;1.00;;;;;;5059895;28;20196;-91
2022/06/23 06:20:22;;;;;;;3.20;2.63;;;37.50;1.00;;;;;;5073414;28;20222;-92
2022/06/23 06:22:59;;;;;;;2.97;2.42;;;37.80;1.00;;;;;;5070479;28;20223;-91
2022/06/23 06:25:30;;;;;;;5.65;2.22;;;38.20;1.00;;;;;;5066868;28;20222;-92
2022/06/23 06:28:10;;;;;;;4.13;2.45;;;38.40;1.00;;;;;;5065526;28;20196;-91
2022/06/23 06:30:41;;;;;;;2.97;2.33;;;38.40;5.10;;;;;;5068270;28;20317;-92
2022/06/23 06:33:26;;;;;;;3.65;2.60;;;38.20;1.40;;;;;;5073866;28;20196;-92
2022/06/23 06:35:56;;;;;;;5.85;3.00;;;38.60;1.00;;;;;;5073346;28;20230;-92
2022/06/23 06:38:26;;;;;;;4.03;2.92;;;39.00;1.00;;;;;;5073777;28;20195;-92
2022/06/23 06:40:56;;;;;;;3.85;2.63;;;39.00;1.00;;;;;;5073360;28;20230;-92
2022/06/23 06:43:30;;;;;;;3.78;2.67;;;38.80;1.00;;;;;;5072919;28;20644;-92
2022/06/23 06:45:59;;;;;;;4.40;2.40;;;38.60;1.00;;;;;;5073830;28;20223;-91
2022/06/23 06:48:31;;;;;;;2.85;2.35;;;38.80;1.00;;;;;;5065837;28;20199;-92
2022/06/23 06:51:02;;;;;;;3.08;2.20;;;39.10;1.00;;;;;;5073384;28;20656;-92
2022/06/23 06:53:35;;;;;;;3.78;2.60;;;39.20;1.00;;;;;;5073676;28;20711;-92
2022/06/23 06:56:08;;;;;;;3.30;2.60;;;39.30;1.00;;;;;;5069892;28;20338;-92
2022/06/23 06:58:44;;;;;;;2.80;2.60;;;39.40;1.00;;;;;;5071324;28;20269;-93
2022/06/23 07:01:15;;;;;;;3.05;2.50;;;39.40;1.00;;;;;;5073381;28;20560;-93
2022/06/23 07:03:47;;;;;;;4.57;3.00;;;39.00;1.00;;;;;;5071458;28;20207;-92
2022/06/23 07:06:21;;;;;;;7.25;2.70;;;38.70;1.00;;;;;;5073219;28;20190;-92
2022/06/23 07:08:53;;;;;;;3.50;2.35;;;38.40;1.00;;;;;;5071663;28;20215;-92
2022/06/23 07:11:26;;;;;;;4.78;2.65;;;38.20;1.00;;;;;;5061346;28;20184;-92
2022/06/23 07:14:02;;;;;;;3.67;2.65;;;38.00;1.00;;;;;;5073227;28;20201;-92
2022/06/23 07:16:35;;;;;;;6.20;2.40;;;37.80;1.00;;;;;;5073482;28;20318;-92
2022/06/23 07:19:10;;;;;;;3.53;2.28;;;37.50;1.00;;;;;;5066622;28;20619;-92
2022/06/23 07:21:44;;;;;;;4.03;2.78;;;37.50;1.00;;;;;;5073036;28;20203;-92
2022/06/23 07:24:16;;;;;;;6.05;2.60;;;37.70;1.00;;;;;;5058846;28;20279;-92
2022/06/23 07:29:41;;;;;;;3.03;2.53;;;38.10;1.00;;;;;;5064767;28;20200;-91
2022/06/23 07:32:17;;;;;;;4.47;2.85;;;38.20;1.00;;;;;;5072369;28;20355;-90
2022/06/23 07:34:51;;;;;;;4.20;2.50;;;38.30;1.00;;;;;;5072850;28;20573;-91
2022/06/23 07:37:27;;;;;;;4.75;2.33;;;38.50;1.00;;;;;;5072285;28;20233;-90
2022/06/23 07:40:00;;;;;;;2.72;2.50;;;38.60;1.00;;;;;;5072139;28;20252;-90
2022/06/23 07:42:44;;;;;;;5.63;2.33;;;38.50;1.00;;;;;;5072482;28;20204;-90
2022/06/23 07:45:18;;;;;;;3.78;2.60;;;38.80;1.00;;;;;;5063382;28;20191;-90
2022/06/23 07:47:46;;;;;;;3.90;2.60;;;39.10;1.00;;;;;;5072157;28;20640;-90
2022/06/23 07:50:13;;;;;;;3.33;2.38;;;38.90;1.00;;;;;;5070846;28;20188;-92
2022/06/23 07:52:42;;;;;;;4.88;2.60;;;39.20;1.00;;;;;;5072019;28;20223;-90
2022/06/23 07:55:18;;;;;;;4.03;2.50;;;39.50;1.00;;;;;;5072820;28;20195;-90
2022/06/23 07:57:45;;;;;;;3.65;2.25;;;39.70;1.00;;;;;;5071158;28;20214;-90
2022/06/23 08:00:18;;;;;;;3.35;2.38;;;40.20;1.00;;;;;;5075902;28;20202;-93
2022/06/23 08:02:53;;;;;;;4.25;2.40;;;40.90;1.00;;;;;;5074348;28;20199;-93
2022/06/23 08:05:25;;;;;;;3.40;2.20;;;41.30;1.00;;;;;;5077140;28;20287;-91
2022/06/23 08:07:53;;;;;;;4.32;3.25;;;41.70;1.00;;;;;;5076433;28;20636;-90
2022/06/23 08:10:24;;;;;;;3.70;2.03;;;41.60;1.00;;;;;;5076282;28;20215;-89
2022/06/23 08:12:55;;;;;;;3.95;2.10;;;41.50;1.00;;;;;;5075952;28;20196;-90
2022/06/23 08:18:25;;;;;;;1.70;1.60;;;41.30;1.00;;;;;;5075230;28;20310;-89
2022/06/23 08:21:02;;;;;;;2.13;1.60;;;41.60;1.00;;;;;;5073304;28;20202;-91
2022/06/23 08:23:33;;;;;;;3.10;1.80;;;42.10;1.00;;;;;;5075609;28;25068;-90
2022/06/23 08:26:03;;;;;;;2.90;1.80;;;42.50;1.00;;;;;;5075551;28;20199;-91
2022/06/23 08:28:31;;;;;;;3.55;1.73;;;42.80;1.00;;;;;;5075808;28;20223;-91
2022/06/23 08:31:00;;;;;;;2.85;1.50;;;43.30;1.00;;;;;;5075638;28;20199;-90
2022/06/23 08:33:28;;;;;;;3.10;1.83;;;43.50;1.00;;;;;;5075467;28;20207;-91
2022/06/23 08:35:58;;;;;;;2.53;1.70;;;43.40;1.00;;;;;;5075341;28;20206;-92
2022/06/23 08:38:30;;;;;;;2.92;1.65;;;43.40;1.00;;;;;;5072013;28;20570;-92
2022/06/23 08:41:17;;;;;;;5.28;1.77;;;43.40;1.00;;;;;;5074995;28;20215;-91
2022/06/23 08:43:51;;;;;;;2.97;1.70;;;43.20;1.00;;;;;;5050076;28;20550;-91
2022/06/23 08:46:27;;;;;;;2.42;1.50;;;43.30;1.00;;;;;;5071660;28;20222;-91
2022/06/23 08:49:03;;;;;;;1.80;1.50;;;43.50;1.00;;;;;;5075353;28;20191;-92
2022/06/23 08:51:46;;;;;;;3.67;1.73;;;43.60;1.00;;;;;;5074406;28;20219;-92
2022/06/23 08:54:23;;;;;;;3.70;1.63;;;43.40;1.00;;;;;;5075002;28;20265;-91
2022/06/23 08:56:58;;;;;;;3.40;1.75;;;42.90;1.00;;;;;;5060619;28;20222;-91
2022/06/23 08:59:36;;;;;;;3.45;1.80;;;42.50;1.00;;;;;;5075498;28;20199;-90
2022/06/23 09:02:14;;;;;;;3.70;1.73;;;41.80;1.00;;;;;;5074946;28;20219;-91
2022/06/23 09:04:51;;;;;;;3.85;1.75;;;41.50;1.00;;;;;;5064409;28;20199;-91
2022/06/23 09:07:30;;;;;;;4.38;1.85;;;41.30;1.00;;;;;;5074668;28;20226;-90
2022/06/23 09:10:16;;;;;;;11.45;2.75;;;41.60;1.00;;;;;;5074965;28;20695;-91
2022/06/23 09:12:47;;;;;;;4.47;1.60;;;41.70;1.00;;;;;;5074746;28;20199;-91
2022/06/23 09:15:42;;;;;;;3.83;1.80;;;41.80;1.00;;;;;;5074743;28;20226;-91
2022/06/23 09:18:37;;;;;;;3.40;1.70;;;41.90;1.00;;;;;;5060183;28;20607;-91
2022/06/23 09:21:28;;;;;;;3.65;1.75;;;41.50;1.00;;;;;;5060050;28;20203;-91
2022/06/23 09:24:22;;;;;;;1.77;1.58;;;41.10;1.00;;;;;;5074809;28;20211;-90
2022/06/23 09:26:58;;;;;;;2.38;1.65;;;40.70;1.00;;;;;;5074396;28;20311;-90
2022/06/23 09:29:40;;;;;;;3.83;1.70;;;40.20;1.00;;;;;;5074675;28;20270;-91
2022/06/23 09:32:38;;;;;;;;;;;;;;;;;;;;;
2022/06/23 09:35:30;;;;;;;4.20;2.35;;;39.70;1.00;;;;;;5077008;28;20192;-93
2022/06/23 09:38:22;;;;;;;2.53;1.60;;;39.40;1.00;;;;;;5073347;28;20211;-91
2022/06/23 09:41:00;;;;;;;2.80;1.45;;;39.00;1.00;;;;;;5074776;28;20643;-92
2022/06/23 09:44:01;;;;;;;7.30;1.80;;;38.40;1.00;;;;;;5062292;28;20210;-92
2022/06/23 09:47:00;;;;;;;1.70;1.50;;;37.90;1.00;;;;;;5066620;28;20688;-91
2022/06/23 09:49:45;;;;;;;2.50;1.75;;;37.20;1.00;;;;;;5068113;28;20200;-90
2022/06/23 09:52:41;;;;;;;2.97;1.85;;;36.60;1.00;;;;;;5074313;28;20196;-91
2022/06/23 09:55:42;;;;;;;2.83;1.55;;;36.20;1.00;;;;;;5064437;28;20258;-91
2022/06/23 09:58:37;;;;;;;3.92;1.77;;;36.00;1.00;;;;;;5031367;28;20226;-91
2022/06/23 10:01:15;;;;;;;4.80;2.28;;;35.80;1.00;;;;;;5060815;28;20604;-91
2022/06/23 10:03:55;;;;;;;4.55;1.90;;;35.70;1.00;;;;;;5072466;28;20211;-91
2022/06/23 10:06:50;;;;;;;2.58;1.60;;;35.50;1.00;;;;;;5074206;28;20231;-92
2022/06/23 10:09:33;;;;;;;9.27;2.00;;;35.40;1.00;;;;;;5074007;28;20214;-91
2022/06/23 10:12:28;;;;;;;3.42;1.50;;;35.10;1.00;;;;;;5072712;28;20563;-90
2022/06/23 10:15:19;;;;;;;3.92;2.70;;;34.90;1.00;;;;;;5062060;28;20200;-91
2022/06/23 10:18:07;;;;;;;2.78;1.63;;;34.80;1.00;;;;;;5072942;28;20235;-91
2022/06/23 10:20:48;;;;;;;1.77;1.40;;;34.80;1.00;;;;;;5073435;28;20197;-91
2022/06/23 10:23:28;;;;;;;3.60;1.70;;;34.60;1.00;;;;;;5067918;28;20201;-90
2022/06/23 10:26:33;;;;;;;13.80;11.88;;;34.40;1.00;;;;;;5070855;28;20207;-90
2022/06/23 10:29:23;;;;;;;4.70;1.73;;;34.10;1.00;;;;;;5058178;28;20238;-90
2022/06/23 10:32:18;;;;;;;2.35;1.80;;;34.00;1.00;;;;;;5063020;28;20200;-89
2022/06/23 10:35:01;;;;;;;4.88;2.35;;;33.80;1.00;;;;;;5068168;28;20228;-92
2022/06/23 10:37:42;;;;;;;2.47;1.50;;;33.70;1.00;;;;;;5067124;28;20226;-91
2022/06/23 10:40:44;;;;;;;2.83;1.70;;;33.60;1.00;;;;;;5058342;28;20724;-91
2022/06/23 10:43:53;;;;;;;5.00;2.00;;;33.40;1.00;;;;;;5059349;28;20194;-91
2022/06/23 10:46:25;;;;;;;2.15;1.67;;;33.20;1.00;;;;;;5055640;28;20204;-91
2022/06/23 10:49:33;;;;;;;3.95;1.85;;;33.20;1.00;;;;;;5073251;28;20220;-90
2022/06/23 10:52:25;;;;;;;2.47;1.80;;;32.90;1.00;;;;;;5060836;28;20196;-91
2022/06/23 10:55:13;;;;;;;4.93;1.85;;;32.60;1.00;;;;;;5072940;28;20576;-90
2022/06/23 10:58:12;;;;;;;4.60;1.90;;;32.40;1.00;;;;;;5061102;28;20575;-91
2022/06/23 11:00:50;;;;;;;2.72;1.90;;;32.20;1.00;;;;;;5056478;28;20199;-91
2022/06/23 11:03:46;;;;;;;4.05;2.00;;;31.90;1.00;;;;;;5071874;28;20771;-90
2022/06/23 11:06:30;;;;;;;3.22;1.80;;;31.90;1.00;;;;;;5062129;28;20526;-91
2022/06/23 11:09:26;;;;;;;3.75;1.70;;;31.80;1.00;;;;;;5072482;28;20668;-91
2022/06/23 11:12:04;;;;;;;2.92;1.70;;;31.80;1.00;;;;;;5072555;28;20645;-91
2022/06/23 11:14:46;;;;;;;2.28;1.75;;;31.80;1.00;;;;;;5060437;28;20641;-91
2022/06/23 11:17:25;;;;;;;2.72;1.83;;;31.70;1.00;;;;;;5068073;28;20231;-91
2022/06/23 11:20:21;;;;;;;3.75;1.75;;;31.60;1.00;;;;;;5072922;28;20982;-91
2022/06/23 11:22:54;;;;;;;2.10;1.65;;;31.60;1.00;;;;;;5071625;28;20223;-91
2022/06/23 11:25:37;;;;;;;3.13;1.80;;;31.70;1.00;;;;;;5072848;28;20215;-90
2022/06/23 11:28:14;;;;;;;6.38;3.58;;;31.70;1.00;;;;;;5058826;28;20657;-90
2022/06/23 11:30:51;;;;;;;4.47;3.33;;;31.50;1.00;;;;;;5072163;28;20200;-91
2022/06/23 11:33:47;;;;;;;2.17;1.70;;;31.50;1.00;;;;;;5053111;28;20281;-91
2022/06/23 11:36:25;;;;;;;4.32;1.73;;;31.40;1.00;;;;;;5062231;28;20601;-91
2022/06/23 11:39:12;;;;;;;5.97;2.42;;;31.40;1.00;;;;;;5072648;28;20216;-91
2022/06/23 11:41:54;;;;;;;2.05;1.60;;;31.40;1.00;;;;;;5059135;28;20694;-92
2022/06/23 11:44:38;;;;;;;3.28;1.90;;;31.40;1.00;;;;;;5072851;28;20199;-90
2022/06/23 11:47:16;;;;;;;2.53;1.83;;;31.40;1.00;;;;;;5070237;28;20211;-91
2022/06/23 11:49:58;;;;;;;3.35;1.55;;;31.30;1.00;;;;;;5069562;28;20657;-90
2022/06/23 11:52:52;;;;;;;2.85;1.83;;;31.40;1.00;;;;;;5064951;28;20265;-90
2022/06/23 11:55:35;;;;;;;4.18;1.60;;;31.40;1.00;;;;;;5061965;28;20230;-91
2022/06/23 11:58:22;;;;;;;2.80;1.75;;;31.30;1.00;;;;;;5063121;28;20707;-91
2022/06/23 12:01:15;;;;;;;2.55;1.67;;;31.20;1.00;;;;;;5071811;28;20249;-90
2022/06/23 12:03:57;;;;;;;2.58;1.70;;;31.10;1.00;;;;;;5072045;28;20626;-93
2022/06/23 12:06:41;;;;;;;4.63;1.80;;;30.90;1.00;;;;;;5063476;28;20204;-92
2022/06/23 12:09:20;;;;;;;2.72;1.63;;;30.70;1.00;;;;;;5072447;28;20569;-91
2022/06/23 12:11:49;;;;;;;4.40;1.92;;;30.70;1.00;;;;;;5072572;28;20218;-89
2022/06/23 12:14:18;;;;;;;3.78;1.90;;;30.70;1.00;;;;;;5065283;28;20637;-92
2022/06/23 12:17:02;;;;;;;1.98;1.58;;;30.70;1.00;;;;;;5074164;28;20278;-93
2022/06/23 12:19:40;;;;;;;6.57;2.03;;;30.80;1.00;;;;;;5059446;28;20205;-93
2022/06/23 12:22:15;;;;;;;1.70;1.60;;;30.80;1.00;;;;;;5073297;28;20192;-90
2022/06/23 12:24:49;;;;;;;19.42;3.00;;;30.80;1.00;;;;;;5066974;28;20653;-90
2022/06/23 12:27:26;;;;;;;5.13;2.00;;;30.80;1.00;;;;;;5072105;28;20196;-90
2022/06/23 12:30:00;;;;;;;4.85;1.98;;;30.80;1.00;;;;;;5072411;28;20567;-90
2022/06/23 12:32:48;;;;;;;7.43;2.03;;;30.80;1.00;;;;;;5069979;28;20542;-90
2022/06/23 12:35:23;;;;;;;3.75;1.77;;;30.90;1.00;;;;;;5054787;28;20254;-91
2022/06/23 12:37:58;;;;;;;4.75;1.70;;;30.90;1.00;;;;;;5068643;28;20215;-90
2022/06/23 12:40:31;;;;;;;2.97;1.60;;;30.90;1.00;;;;;;5072651;28;20206;-89
2022/06/23 12:43:04;;;;;;;2.60;1.88;;;30.80;1.00;;;;;;5075205;28;20212;-88
2022/06/23 12:45:47;;;;;;;5.85;1.90;;;30.80;1.00;;;;;;5075754;28;20279;-90
2022/06/23 12:48:29;;;;;;;2.88;1.45;;;30.60;1.00;;;;;;5073529;28;20200;-88
2022/06/23 12:51:06;;;;;;;2.13;1.80;;;30.50;1.00;;;;;;5075027;28;20282;-89
2022/06/23 12:53:58;;;;;;;4.53;1.90;;;30.50;1.00;;;;;;5075167;28;20622;-89
2022/06/23 12:56:56;;;;;;;2.63;1.70;;;30.50;1.00;;;;;;5059295;28;20204;-90
2022/06/23 12:59:28;;;;;;;2.42;1.67;;;30.60;1.00;;;;;;5046268;28;20206;-89
2022/06/23 13:02:05;;;;;;;3.70;1.60;;;30.60;1.00;;;;;;5075263;28;20196;-89
2022/06/23 13:04:45;;;;;;;4.20;1.65;;;30.70;1.00;;;;;;5075282;28;20195;-90
2022/06/23 13:07:19;;;;;;;2.38;1.42;;;30.70;1.00;;;;;;5069593;28;20211;-89
2022/06/23 13:09:55;;;;;;;1.85;1.60;;;30.70;1.00;;;;;;5065559;28;20258;-89
2022/06/23 13:12:38;;;;;;;2.53;1.60;;;30.60;1.00;;;;;;5072071;28;20637;-89
2022/06/23 13:15:10;;;;;;;2.95;1.50;;;30.50;1.00;;;;;;5075320;28;20204;-89
2022/06/23 13:17:43;;;;;;;3.28;1.52;;;30.40;1.00;;;;;;5074052;28;20224;-89
2022/06/23 13:20:22;;;;;;;2.80;1.50;;;30.30;1.00;;;;;;5074419;28;20204;-89
2022/06/23 13:22:53;;;;;;;3.28;1.58;;;30.20;1.00;;;;;;5074721;28;20180;-91
2022/06/23 13:25:27;;;;;;;2.65;1.60;;;30.20;1.00;;;;;;5074943;28;20608;-90
2022/06/23 13:27:57;;;;;;;2.75;1.80;;;30.30;1.00;;;;;;5074373;28;20224;-88
2022/06/23 13:30:28;;;;;;;3.78;1.60;;;30.30;1.00;;;;;;5074349;28;20223;-88
2022/06/23 13:33:03;;;;;;;2.58;1.67;;;30.30;1.00;;;;;;5074403;28;20196;-88
2022/06/23 13:35:35;;;;;;;2.90;1.83;;;30.30;1.00;;;;;;5074353;28;20212;-88
2022/06/23 13:38:15;;;;;;;3.45;1.75;;;30.40;1.00;;;;;;5075088;28;20212;-90
2022/06/23 13:40:53;;;;;;;3.58;1.65;;;30.40;1.00;;;;;;5061117;28;20196;-89
2022/06/23 13:43:29;;;;;;;2.28;1.70;;;30.40;1.00;;;;;;5062629;28;20196;-91
2022/06/23 13:46:02;;;;;;;2.83;1.90;;;30.50;1.00;;;;;;5069732;28;20649;-90
2022/06/23 13:48:36;;;;;;;2.20;1.63;;;30.50;1.00;;;;;;5066854;28;20192;-91
2022/06/23 13:51:10;;;;;;;2.83;1.70;;;30.50;1.00;;;;;;5077324;28;20194;-90
2022/06/23 13:53:42;;;;;;;1.67;1.40;;;30.50;1.00;;;;;;5058878;28;20188;-89
2022/06/23 13:56:18;;;;;;;2.42;1.50;;;30.40;1.00;;;;;;5062138;28;20208;-91
2022/06/23 13:58:57;;;;;;;5.60;1.80;;;30.40;1.00;;;;;;5068913;28;20231;-90
2022/06/23 14:01:52;;;;;;;2.08;1.55;;;30.40;1.00;;;;;;5075846;28;20186;-92
2022/06/23 14:04:24;;;;;;;2.80;1.80;;;30.40;1.00;;;;;;5057796;28;20207;-90
2022/06/23 14:06:58;;;;;;;3.22;1.60;;;30.30;1.00;;;;;;5080180;28;20200;-91
2022/06/23 14:09:39;;;;;;;2.55;1.85;;;30.30;1.00;;;;;;5062434;28;20253;-94